sensor_id;sensor_type;location;lat;lon;timestamp;temperature;humidity
52899;DHT22;38763;53.096;6.062;2022-10-26T00:01:29;10.50;99.90
52899;DHT22;38763;53.096;6.062;2022-10-26T00:03:55;10.70;99.90
52899;DHT22;38763;53.096;6.062;2022-10-26T00:06:23;10.60;99.90
52899;DHT22;38763;53.096;6.062;2022-10-26T00:08:55;10.50;99.90
52899;DHT22;38763;53.096;6.062;2022-10-26T00:11:21;10.60;99.90
52899;DHT22;38763;53.096;6.062;2022-10-26T00:13:47;10.60;99.90
52899;DHT22;38763;53.096;6.062;2022-10-26T00:16:20;10.60;99.90
52899;DHT22;38763;53.096;6.062;2022-10-26T00:18:46;10.60;99.90
52899;DHT22;38763;53.096;6.062;2022-10-26T00:21:12;10.60;99.90
52899;DHT22;38763;53.096;6.062;2022-10-26T00:23:37;10.50;99.90
52899;DHT22;38763;53.096;6.062;2022-10-26T00:26:03;10.50;99.90
52899;DHT22;38763;53.096;6.062;2022-10-26T00:28:29;10.50;99.90
52899;DHT22;38763;53.096;6.062;2022-10-26T00:31:03;10.50;99.90
52899;DHT22;38763;53.096;6.062;2022-10-26T00:33:29;10.40;99.90
52899;DHT22;38763;53.096;6.062;2022-10-26T00:35:55;10.60;99.90
52899;DHT22;38763;53.096;6.062;2022-10-26T00:38:21;10.40;99.90
52899;DHT22;38763;53.096;6.062;2022-10-26T00:40:47;10.40;99.90
52899;DHT22;38763;53.096;6.062;2022-10-26T00:45:45;10.30;99.90
52899;DHT22;38763;53.096;6.062;2022-10-26T00:48:22;10.40;99.90
52899;DHT22;38763;53.096;6.062;2022-10-26T00:50:50;10.20;99.90
52899;DHT22;38763;53.096;6.062;2022-10-26T00:53:18;10.40;99.90
52899;DHT22;38763;53.096;6.062;2022-10-26T00:55:46;10.40;99.90
52899;DHT22;38763;53.096;6.062;2022-10-26T00:58:13;10.30;99.90
52899;DHT22;38763;53.096;6.062;2022-10-26T01:00:41;10.20;99.90
52899;DHT22;38763;53.096;6.062;2022-10-26T01:03:08;10.20;99.90
52899;DHT22;38763;53.096;6.062;2022-10-26T01:05:36;10.10;99.90
52899;DHT22;38763;53.096;6.062;2022-10-26T01:08:03;10.20;99.90
52899;DHT22;38763;53.096;6.062;2022-10-26T01:10:29;10.30;99.90
52899;DHT22;38763;53.096;6.062;2022-10-26T01:12:56;10.20;99.90
52899;DHT22;38763;53.096;6.062;2022-10-26T01:15:30;10.20;99.90
52899;DHT22;38763;53.096;6.062;2022-10-26T01:18:31;10.20;99.90
52899;DHT22;38763;53.096;6.062;2022-10-26T01:21:24;10.10;99.90
52899;DHT22;38763;53.096;6.062;2022-10-26T01:24:06;10.10;99.90
52899;DHT22;38763;53.096;6.062;2022-10-26T01:29:19;10.00;99.90
52899;DHT22;38763;53.096;6.062;2022-10-26T01:32:08;10.00;99.90
52899;DHT22;38763;53.096;6.062;2022-10-26T01:34:51;9.90;99.90
52899;DHT22;38763;53.096;6.062;2022-10-26T01:37:25;10.00;99.90
52899;DHT22;38763;53.096;6.062;2022-10-26T01:39:59;9.80;99.90
52899;DHT22;38763;53.096;6.062;2022-10-26T01:42:27;10.00;99.90
52899;DHT22;38763;53.096;6.062;2022-10-26T01:45:14;10.00;99.90
52899;DHT22;38763;53.096;6.062;2022-10-26T01:47:40;10.00;99.90
52899;DHT22;38763;53.096;6.062;2022-10-26T01:50:09;9.70;99.90
52899;DHT22;38763;53.096;6.062;2022-10-26T01:52:35;9.90;99.90
52899;DHT22;38763;53.096;6.062;2022-10-26T01:55:43;9.80;99.90
52899;DHT22;38763;53.096;6.062;2022-10-26T01:57:52;9.80;99.90
52899;DHT22;38763;53.096;6.062;2022-10-26T02:00:18;9.90;99.90
52899;DHT22;38763;53.096;6.062;2022-10-26T02:03:16;9.70;99.90
52899;DHT22;38763;53.096;6.062;2022-10-26T02:06:02;9.70;99.90
52899;DHT22;38763;53.096;6.062;2022-10-26T02:11:23;9.80;99.90
52899;DHT22;38763;53.096;6.062;2022-10-26T02:16:31;9.70;99.90
52899;DHT22;38763;53.096;6.062;2022-10-26T02:19:06;9.60;99.90
52899;DHT22;38763;53.096;6.062;2022-10-26T02:21:37;9.60;99.90
52899;DHT22;38763;53.096;6.062;2022-10-26T02:24:07;9.70;99.90
52899;DHT22;38763;53.096;6.062;2022-10-26T02:26:35;9.70;99.90
52899;DHT22;38763;53.096;6.062;2022-10-26T02:29:04;9.80;99.90
52899;DHT22;38763;53.096;6.062;2022-10-26T02:31:32;9.60;99.90
52899;DHT22;38763;53.096;6.062;2022-10-26T02:34:02;9.60;99.90
52899;DHT22;38763;53.096;6.062;2022-10-26T02:36:32;9.70;99.90
52899;DHT22;38763;53.096;6.062;2022-10-26T02:39:02;9.50;99.90
52899;DHT22;38763;53.096;6.062;2022-10-26T02:41:30;9.70;99.90
52899;DHT22;38763;53.096;6.062;2022-10-26T02:44:07;9.50;99.90
52899;DHT22;38763;53.096;6.062;2022-10-26T02:46:35;9.60;99.90
52899;DHT22;38763;53.096;6.062;2022-10-26T02:49:01;9.50;99.90
52899;DHT22;38763;53.096;6.062;2022-10-26T02:51:35;9.50;99.90
52899;DHT22;38763;53.096;6.062;2022-10-26T02:55:02;9.50;99.90
52899;DHT22;38763;53.096;6.062;2022-10-26T02:59:31;9.70;99.90
52899;DHT22;38763;53.096;6.062;2022-10-26T03:01:59;9.50;99.90
52899;DHT22;38763;53.096;6.062;2022-10-26T03:04:32;9.70;99.90
52899;DHT22;38763;53.096;6.062;2022-10-26T03:06:58;9.50;99.90
52899;DHT22;38763;53.096;6.062;2022-10-26T03:09:24;9.50;99.90
52899;DHT22;38763;53.096;6.062;2022-10-26T03:11:50;9.70;99.90
52899;DHT22;38763;53.096;6.062;2022-10-26T03:14:16;9.60;99.90
52899;DHT22;38763;53.096;6.062;2022-10-26T03:16:41;9.70;99.90
52899;DHT22;38763;53.096;6.062;2022-10-26T03:19:07;9.70;99.90
52899;DHT22;38763;53.096;6.062;2022-10-26T03:21:33;9.70;99.90
52899;DHT22;38763;53.096;6.062;2022-10-26T03:23:58;9.50;99.90
52899;DHT22;38763;53.096;6.062;2022-10-26T03:26:24;9.60;99.90
52899;DHT22;38763;53.096;6.062;2022-10-26T03:28:49;9.60;99.90
52899;DHT22;38763;53.096;6.062;2022-10-26T03:31:15;9.60;99.90
52899;DHT22;38763;53.096;6.062;2022-10-26T03:33:41;9.40;99.90
52899;DHT22;38763;53.096;6.062;2022-10-26T03:36:07;9.50;99.90
52899;DHT22;38763;53.096;6.062;2022-10-26T03:38:32;9.70;99.90
52899;DHT22;38763;53.096;6.062;2022-10-26T03:40:58;9.60;99.90
52899;DHT22;38763;53.096;6.062;2022-10-26T03:43:24;9.60;99.90
52899;DHT22;38763;53.096;6.062;2022-10-26T03:45:49;9.40;99.90
52899;DHT22;38763;53.096;6.062;2022-10-26T03:48:15;9.40;99.90
52899;DHT22;38763;53.096;6.062;2022-10-26T03:50:41;9.50;99.90
52899;DHT22;38763;53.096;6.062;2022-10-26T03:53:06;9.40;99.90
52899;DHT22;38763;53.096;6.062;2022-10-26T03:55:32;9.50;99.90
52899;DHT22;38763;53.096;6.062;2022-10-26T03:57:57;9.50;99.90
52899;DHT22;38763;53.096;6.062;2022-10-26T04:00:23;9.40;99.90
52899;DHT22;38763;53.096;6.062;2022-10-26T04:02:56;9.50;99.90
52899;DHT22;38763;53.096;6.062;2022-10-26T04:05:23;9.50;99.90
52899;DHT22;38763;53.096;6.062;2022-10-26T04:08:00;9.40;99.90
52899;DHT22;38763;53.096;6.062;2022-10-26T04:10:29;9.50;99.90
52899;DHT22;38763;53.096;6.062;2022-10-26T04:12:55;9.60;99.90
52899;DHT22;38763;53.096;6.062;2022-10-26T04:15:22;9.50;99.90
52899;DHT22;38763;53.096;6.062;2022-10-26T04:17:47;9.70;99.90
52899;DHT22;38763;53.096;6.062;2022-10-26T04:20:13;9.60;99.90
52899;DHT22;38763;53.096;6.062;2022-10-26T04:22:39;9.50;99.90
52899;DHT22;38763;53.096;6.062;2022-10-26T04:25:05;9.70;99.90
52899;DHT22;38763;53.096;6.062;2022-10-26T04:27:31;9.70;99.90
52899;DHT22;38763;53.096;6.062;2022-10-26T04:29:57;9.70;99.90
52899;DHT22;38763;53.096;6.062;2022-10-26T04:32:22;9.80;99.90
52899;DHT22;38763;53.096;6.062;2022-10-26T04:34:48;9.70;99.90
52899;DHT22;38763;53.096;6.062;2022-10-26T04:37:14;9.60;99.90
52899;DHT22;38763;53.096;6.062;2022-10-26T04:39:39;9.70;99.90
52899;DHT22;38763;53.096;6.062;2022-10-26T04:42:05;9.70;99.90
52899;DHT22;38763;53.096;6.062;2022-10-26T04:44:31;9.80;99.90
52899;DHT22;38763;53.096;6.062;2022-10-26T04:46:57;9.90;99.90
52899;DHT22;38763;53.096;6.062;2022-10-26T04:49:22;9.90;99.90
52899;DHT22;38763;53.096;6.062;2022-10-26T04:51:48;9.70;99.90
52899;DHT22;38763;53.096;6.062;2022-10-26T04:54:14;9.90;99.90
52899;DHT22;38763;53.096;6.062;2022-10-26T04:56:39;10.00;99.90
52899;DHT22;38763;53.096;6.062;2022-10-26T04:59:05;9.90;99.90
52899;DHT22;38763;53.096;6.062;2022-10-26T05:01:30;9.90;99.90
52899;DHT22;38763;53.096;6.062;2022-10-26T05:03:56;10.00;99.90
52899;DHT22;38763;53.096;6.062;2022-10-26T05:06:22;10.10;99.90
52899;DHT22;38763;53.096;6.062;2022-10-26T05:08:47;9.90;99.90
52899;DHT22;38763;53.096;6.062;2022-10-26T05:11:13;10.00;99.90
52899;DHT22;38763;53.096;6.062;2022-10-26T05:13:39;10.00;99.90
52899;DHT22;38763;53.096;6.062;2022-10-26T05:16:05;10.10;99.90
52899;DHT22;38763;53.096;6.062;2022-10-26T05:18:31;9.90;99.90
52899;DHT22;38763;53.096;6.062;2022-10-26T05:20:56;10.20;99.90
52899;DHT22;38763;53.096;6.062;2022-10-26T05:23:22;10.10;99.90
52899;DHT22;38763;53.096;6.062;2022-10-26T05:25:48;10.20;99.90
52899;DHT22;38763;53.096;6.062;2022-10-26T05:28:15;10.20;99.90
52899;DHT22;38763;53.096;6.062;2022-10-26T05:30:42;10.10;99.90
52899;DHT22;38763;53.096;6.062;2022-10-26T05:33:09;10.20;99.90
52899;DHT22;38763;53.096;6.062;2022-10-26T05:35:35;10.10;99.90
52899;DHT22;38763;53.096;6.062;2022-10-26T05:38:14;10.20;99.90
52899;DHT22;38763;53.096;6.062;2022-10-26T05:40:47;10.30;99.90
52899;DHT22;38763;53.096;6.062;2022-10-26T05:43:13;10.20;99.90
52899;DHT22;38763;53.096;6.062;2022-10-26T05:45:38;10.10;99.90
52899;DHT22;38763;53.096;6.062;2022-10-26T05:48:04;10.30;99.90
52899;DHT22;38763;53.096;6.062;2022-10-26T05:50:30;10.30;99.90
52899;DHT22;38763;53.096;6.062;2022-10-26T05:52:55;10.40;99.90
52899;DHT22;38763;53.096;6.062;2022-10-26T05:55:21;10.20;99.90
52899;DHT22;38763;53.096;6.062;2022-10-26T05:57:47;10.40;99.90
52899;DHT22;38763;53.096;6.062;2022-10-26T06:00:18;10.30;99.90
52899;DHT22;38763;53.096;6.062;2022-10-26T06:05:50;10.30;99.90
52899;DHT22;38763;53.096;6.062;2022-10-26T06:08:17;10.20;99.90
52899;DHT22;38763;53.096;6.062;2022-10-26T06:10:43;10.40;99.90
52899;DHT22;38763;53.096;6.062;2022-10-26T06:13:08;10.30;99.90
52899;DHT22;38763;53.096;6.062;2022-10-26T06:21:34;10.60;99.90
52899;DHT22;38763;53.096;6.062;2022-10-26T06:26:45;10.50;99.90
52899;DHT22;38763;53.096;6.062;2022-10-26T06:32:09;10.60;99.90
52899;DHT22;38763;53.096;6.062;2022-10-26T06:34:37;10.30;99.90
52899;DHT22;38763;53.096;6.062;2022-10-26T06:37:07;10.40;99.90
52899;DHT22;38763;53.096;6.062;2022-10-26T06:39:35;10.40;99.90
52899;DHT22;38763;53.096;6.062;2022-10-26T06:42:01;10.50;99.90
52899;DHT22;38763;53.096;6.062;2022-10-26T06:44:27;10.40;99.90
52899;DHT22;38763;53.096;6.062;2022-10-26T06:47:28;10.40;99.90
52899;DHT22;38763;53.096;6.062;2022-10-26T06:50:01;10.50;99.90
52899;DHT22;38763;53.096;6.062;2022-10-26T06:52:36;10.30;99.90
52899;DHT22;38763;53.096;6.062;2022-10-26T06:55:04;10.50;99.90
52899;DHT22;38763;53.096;6.062;2022-10-26T06:57:34;10.40;99.90
52899;DHT22;38763;53.096;6.062;2022-10-26T07:00:06;10.30;99.90
52899;DHT22;38763;53.096;6.062;2022-10-26T07:02:33;10.60;99.90
52899;DHT22;38763;53.096;6.062;2022-10-26T07:04:59;10.60;99.90
52899;DHT22;38763;53.096;6.062;2022-10-26T07:07:29;10.60;99.90
52899;DHT22;38763;53.096;6.062;2022-10-26T07:09:55;10.60;99.90
52899;DHT22;38763;53.096;6.062;2022-10-26T07:12:21;10.70;99.90
52899;DHT22;38763;53.096;6.062;2022-10-26T07:14:46;10.80;99.90
52899;DHT22;38763;53.096;6.062;2022-10-26T07:17:12;10.90;99.90
52899;DHT22;38763;53.096;6.062;2022-10-26T07:19:38;10.90;99.90
52899;DHT22;38763;53.096;6.062;2022-10-26T07:22:05;10.90;99.90
52899;DHT22;38763;53.096;6.062;2022-10-26T07:24:30;10.90;99.90
52899;DHT22;38763;53.096;6.062;2022-10-26T07:26:57;11.10;99.90
52899;DHT22;38763;53.096;6.062;2022-10-26T07:29:23;11.00;99.90
52899;DHT22;38763;53.096;6.062;2022-10-26T07:31:50;11.20;99.90
52899;DHT22;38763;53.096;6.062;2022-10-26T07:34:16;11.10;99.90
52899;DHT22;38763;53.096;6.062;2022-10-26T07:36:41;11.30;99.90
52899;DHT22;38763;53.096;6.062;2022-10-26T07:39:07;11.30;99.90
52899;DHT22;38763;53.096;6.062;2022-10-26T07:41:33;11.40;99.90
52899;DHT22;38763;53.096;6.062;2022-10-26T07:43:59;11.50;99.90
52899;DHT22;38763;53.096;6.062;2022-10-26T07:46:26;11.50;99.90
52899;DHT22;38763;53.096;6.062;2022-10-26T07:48:52;11.50;99.90
52899;DHT22;38763;53.096;6.062;2022-10-26T07:51:18;11.60;99.90
52899;DHT22;38763;53.096;6.062;2022-10-26T07:53:44;11.60;99.90
52899;DHT22;38763;53.096;6.062;2022-10-26T07:56:10;11.50;99.90
52899;DHT22;38763;53.096;6.062;2022-10-26T07:58:35;11.70;99.90
52899;DHT22;38763;53.096;6.062;2022-10-26T08:01:14;11.70;99.90
52899;DHT22;38763;53.096;6.062;2022-10-26T08:03:40;11.80;99.90
52899;DHT22;38763;53.096;6.062;2022-10-26T08:06:06;11.90;99.90
52899;DHT22;38763;53.096;6.062;2022-10-26T08:08:34;12.10;99.90
52899;DHT22;38763;53.096;6.062;2022-10-26T08:10:59;12.20;99.90
52899;DHT22;38763;53.096;6.062;2022-10-26T08:13:25;12.20;99.90
52899;DHT22;38763;53.096;6.062;2022-10-26T08:15:58;12.10;99.90
52899;DHT22;38763;53.096;6.062;2022-10-26T08:18:23;12.10;99.90
52899;DHT22;38763;53.096;6.062;2022-10-26T08:20:49;12.20;99.90
52899;DHT22;38763;53.096;6.062;2022-10-26T08:23:15;12.30;99.90
52899;DHT22;38763;53.096;6.062;2022-10-26T08:25:40;12.30;99.90
52899;DHT22;38763;53.096;6.062;2022-10-26T08:28:06;12.40;99.90
52899;DHT22;38763;53.096;6.062;2022-10-26T08:30:32;12.40;99.90
52899;DHT22;38763;53.096;6.062;2022-10-26T08:33:02;12.50;99.90
52899;DHT22;38763;53.096;6.062;2022-10-26T08:35:29;12.50;99.90
52899;DHT22;38763;53.096;6.062;2022-10-26T08:37:55;12.70;99.90
52899;DHT22;38763;53.096;6.062;2022-10-26T08:40:26;12.70;99.90
52899;DHT22;38763;53.096;6.062;2022-10-26T08:45:35;12.80;99.90
52899;DHT22;38763;53.096;6.062;2022-10-26T08:48:10;12.80;99.90
52899;DHT22;38763;53.096;6.062;2022-10-26T08:50:45;12.90;99.90
52899;DHT22;38763;53.096;6.062;2022-10-26T08:55:53;12.90;99.90
52899;DHT22;38763;53.096;6.062;2022-10-26T08:58:25;12.90;99.90
52899;DHT22;38763;53.096;6.062;2022-10-26T09:00:52;12.90;99.90
52899;DHT22;38763;53.096;6.062;2022-10-26T09:03:18;13.00;99.90
52899;DHT22;38763;53.096;6.062;2022-10-26T09:08:52;13.10;99.90
52899;DHT22;38763;53.096;6.062;2022-10-26T09:17:12;13.20;99.90
52899;DHT22;38763;53.096;6.062;2022-10-26T09:20:13;13.40;99.90
52899;DHT22;38763;53.096;6.062;2022-10-26T09:23:43;13.30;99.90
52899;DHT22;38763;53.096;6.062;2022-10-26T09:25:45;13.30;99.90
52899;DHT22;38763;53.096;6.062;2022-10-26T09:28:16;13.40;99.90
52899;DHT22;38763;53.096;6.062;2022-10-26T09:30:45;13.40;99.90
52899;DHT22;38763;53.096;6.062;2022-10-26T09:33:15;13.40;99.90
52899;DHT22;38763;53.096;6.062;2022-10-26T09:36:01;13.60;99.90
52899;DHT22;38763;53.096;6.062;2022-10-26T09:46:52;13.70;99.90
52899;DHT22;38763;53.096;6.062;2022-10-26T09:49:24;13.80;99.90
52899;DHT22;38763;53.096;6.062;2022-10-26T09:51:55;13.90;99.90
52899;DHT22;38763;53.096;6.062;2022-10-26T09:54:21;14.00;99.90
52899;DHT22;38763;53.096;6.062;2022-10-26T09:56:50;13.90;99.90
52899;DHT22;38763;53.096;6.062;2022-10-26T09:59:20;13.90;99.90
52899;DHT22;38763;53.096;6.062;2022-10-26T10:01:46;14.00;99.90
52899;DHT22;38763;53.096;6.062;2022-10-26T10:04:16;14.00;99.90
52899;DHT22;38763;53.096;6.062;2022-10-26T10:06:46;14.20;99.90
52899;DHT22;38763;53.096;6.062;2022-10-26T10:09:21;14.40;99.90
52899;DHT22;38763;53.096;6.062;2022-10-26T10:11:53;14.50;99.90
52899;DHT22;38763;53.096;6.062;2022-10-26T10:14:24;14.60;99.90
52899;DHT22;38763;53.096;6.062;2022-10-26T10:19:30;14.80;99.90
52899;DHT22;38763;53.096;6.062;2022-10-26T10:21:58;14.90;99.90
52899;DHT22;38763;53.096;6.062;2022-10-26T10:24:29;15.00;99.90
52899;DHT22;38763;53.096;6.062;2022-10-26T10:29:41;15.10;99.90
52899;DHT22;38763;53.096;6.062;2022-10-26T10:32:17;15.20;99.90
52899;DHT22;38763;53.096;6.062;2022-10-26T10:34:48;15.30;99.90
52899;DHT22;38763;53.096;6.062;2022-10-26T10:40:02;15.40;99.90
52899;DHT22;38763;53.096;6.062;2022-10-26T10:42:34;15.50;99.90
52899;DHT22;38763;53.096;6.062;2022-10-26T10:45:01;15.50;99.90
52899;DHT22;38763;53.096;6.062;2022-10-26T10:47:31;15.50;99.90
52899;DHT22;38763;53.096;6.062;2022-10-26T10:50:10;15.50;99.90
52899;DHT22;38763;53.096;6.062;2022-10-26T10:52:40;15.60;99.90
52899;DHT22;38763;53.096;6.062;2022-10-26T10:55:14;15.70;99.90
52899;DHT22;38763;53.096;6.062;2022-10-26T11:00:11;15.80;99.90
52899;DHT22;38763;53.096;6.062;2022-10-26T11:11:09;15.90;99.90
52899;DHT22;38763;53.096;6.062;2022-10-26T11:16:29;15.90;99.90
52899;DHT22;38763;53.096;6.062;2022-10-26T11:19:17;16.00;99.90
52899;DHT22;38763;53.096;6.062;2022-10-26T11:21:48;15.90;99.90
52899;DHT22;38763;53.096;6.062;2022-10-26T11:24:28;16.00;99.90
52899;DHT22;38763;53.096;6.062;2022-10-26T11:32:25;16.10;99.90
52899;DHT22;38763;53.096;6.062;2022-10-26T11:35:09;16.20;99.90
52899;DHT22;38763;53.096;6.062;2022-10-26T11:37:55;16.20;99.90
52899;DHT22;38763;53.096;6.062;2022-10-26T11:48:50;16.30;99.90
52899;DHT22;38763;53.096;6.062;2022-10-26T11:53:53;16.40;99.90
52899;DHT22;38763;53.096;6.062;2022-10-26T11:56:37;16.50;99.90
52899;DHT22;38763;53.096;6.062;2022-10-26T11:59:05;16.50;99.90
52899;DHT22;38763;53.096;6.062;2022-10-26T12:01:32;16.50;99.90
52899;DHT22;38763;53.096;6.062;2022-10-26T12:04:00;16.50;99.90
52899;DHT22;38763;53.096;6.062;2022-10-26T12:06:31;16.50;99.90
52899;DHT22;38763;53.096;6.062;2022-10-26T12:09:09;16.50;99.90
52899;DHT22;38763;53.096;6.062;2022-10-26T12:17:30;16.50;99.90
52899;DHT22;38763;53.096;6.062;2022-10-26T12:23:04;16.50;99.90
52899;DHT22;38763;53.096;6.062;2022-10-26T12:25:30;16.50;99.90
52899;DHT22;38763;53.096;6.062;2022-10-26T12:27:56;16.50;99.90
52899;DHT22;38763;53.096;6.062;2022-10-26T12:30:31;16.50;99.90
52899;DHT22;38763;53.096;6.062;2022-10-26T12:33:27;16.50;99.90
52899;DHT22;38763;53.096;6.062;2022-10-26T12:35:53;16.50;99.90
52899;DHT22;38763;53.096;6.062;2022-10-26T12:43:32;16.60;99.90
52899;DHT22;38763;53.096;6.062;2022-10-26T12:48:45;16.60;99.90
52899;DHT22;38763;53.096;6.062;2022-10-26T12:54:28;16.60;99.90
52899;DHT22;38763;53.096;6.062;2022-10-26T12:57:17;16.70;99.90
52899;DHT22;38763;53.096;6.062;2022-10-26T13:00:03;16.80;99.90
52899;DHT22;38763;53.096;6.062;2022-10-26T13:05:57;16.80;99.90
52899;DHT22;38763;53.096;6.062;2022-10-26T13:08:27;16.80;99.90
52899;DHT22;38763;53.096;6.062;2022-10-26T13:11:05;16.90;99.90
52899;DHT22;38763;53.096;6.062;2022-10-26T13:13:36;17.00;99.90
52899;DHT22;38763;53.096;6.062;2022-10-26T13:16:02;17.20;99.90
52899;DHT22;38763;53.096;6.062;2022-10-26T13:18:28;17.10;99.90
52899;DHT22;38763;53.096;6.062;2022-10-26T13:21:07;17.00;99.90
52899;DHT22;38763;53.096;6.062;2022-10-26T13:23:39;17.10;99.90
52899;DHT22;38763;53.096;6.062;2022-10-26T13:26:14;17.10;99.90
52899;DHT22;38763;53.096;6.062;2022-10-26T13:33:50;17.00;99.90
52899;DHT22;38763;53.096;6.062;2022-10-26T13:39:00;17.00;99.90
52899;DHT22;38763;53.096;6.062;2022-10-26T13:41:37;16.90;99.90
52899;DHT22;38763;53.096;6.062;2022-10-26T13:44:22;16.90;99.90
52899;DHT22;38763;53.096;6.062;2022-10-26T13:46:55;16.90;99.90
52899;DHT22;38763;53.096;6.062;2022-10-26T13:49:29;17.00;99.90
52899;DHT22;38763;53.096;6.062;2022-10-26T13:52:01;16.90;99.90
52899;DHT22;38763;53.096;6.062;2022-10-26T13:54:38;17.00;99.90
52899;DHT22;38763;53.096;6.062;2022-10-26T13:57:18;17.00;99.90
52899;DHT22;38763;53.096;6.062;2022-10-26T13:59:45;17.00;99.90
52899;DHT22;38763;53.096;6.062;2022-10-26T14:04:51;17.00;99.90
52899;DHT22;38763;53.096;6.062;2022-10-26T14:07:19;16.90;99.90
52899;DHT22;38763;53.096;6.062;2022-10-26T14:09:52;16.90;99.90
52899;DHT22;38763;53.096;6.062;2022-10-26T14:12:18;16.90;99.90
52899;DHT22;38763;53.096;6.062;2022-10-26T14:14:44;16.90;99.90
52899;DHT22;38763;53.096;6.062;2022-10-26T14:17:21;16.90;99.90
52899;DHT22;38763;53.096;6.062;2022-10-26T14:19:50;16.80;99.90
52899;DHT22;38763;53.096;6.062;2022-10-26T14:22:24;16.80;99.90
52899;DHT22;38763;53.096;6.062;2022-10-26T14:24:59;16.80;99.90
52899;DHT22;38763;53.096;6.062;2022-10-26T14:27:37;16.90;99.90
52899;DHT22;38763;53.096;6.062;2022-10-26T14:30:23;16.90;99.90
52899;DHT22;38763;53.096;6.062;2022-10-26T14:32:50;16.80;99.90
52899;DHT22;38763;53.096;6.062;2022-10-26T14:35:17;16.80;99.90
52899;DHT22;38763;53.096;6.062;2022-10-26T14:38:12;16.70;99.90
52899;DHT22;38763;53.096;6.062;2022-10-26T14:40:40;16.60;99.90
52899;DHT22;38763;53.096;6.062;2022-10-26T14:43:11;16.60;99.90
52899;DHT22;38763;53.096;6.062;2022-10-26T14:45:47;16.60;99.90
52899;DHT22;38763;53.096;6.062;2022-10-26T14:48:27;16.60;99.90
52899;DHT22;38763;53.096;6.062;2022-10-26T14:51:18;16.50;99.90
52899;DHT22;38763;53.096;6.062;2022-10-26T14:53:50;16.50;99.90
52899;DHT22;38763;53.096;6.062;2022-10-26T14:56:24;16.50;99.90
52899;DHT22;38763;53.096;6.062;2022-10-26T14:58:50;16.40;99.90
52899;DHT22;38763;53.096;6.062;2022-10-26T15:01:24;16.30;99.90
52899;DHT22;38763;53.096;6.062;2022-10-26T15:04:02;16.30;99.90
52899;DHT22;38763;53.096;6.062;2022-10-26T15:09:01;16.20;99.90
52899;DHT22;38763;53.096;6.062;2022-10-26T15:11:30;16.30;99.90
52899;DHT22;38763;53.096;6.062;2022-10-26T15:13:57;16.20;99.90
52899;DHT22;38763;53.096;6.062;2022-10-26T15:16:25;16.20;99.90
52899;DHT22;38763;53.096;6.062;2022-10-26T15:18:56;16.20;99.90
52899;DHT22;38763;53.096;6.062;2022-10-26T15:21:25;16.20;99.90
52899;DHT22;38763;53.096;6.062;2022-10-26T15:23:53;16.10;99.90
52899;DHT22;38763;53.096;6.062;2022-10-26T15:26:19;16.20;99.90
52899;DHT22;38763;53.096;6.062;2022-10-26T15:28:45;16.30;99.90
52899;DHT22;38763;53.096;6.062;2022-10-26T15:36:16;16.10;99.90
52899;DHT22;38763;53.096;6.062;2022-10-26T15:38:43;16.10;99.90
52899;DHT22;38763;53.096;6.062;2022-10-26T15:41:14;16.10;99.90
52899;DHT22;38763;53.096;6.062;2022-10-26T15:43:41;16.10;99.90
52899;DHT22;38763;53.096;6.062;2022-10-26T15:46:06;16.00;99.90
52899;DHT22;38763;53.096;6.062;2022-10-26T15:48:32;16.10;99.90
52899;DHT22;38763;53.096;6.062;2022-10-26T15:51:00;16.00;99.90
52899;DHT22;38763;53.096;6.062;2022-10-26T15:53:26;16.00;99.90
52899;DHT22;38763;53.096;6.062;2022-10-26T15:55:54;15.90;99.90
52899;DHT22;38763;53.096;6.062;2022-10-26T15:58:21;15.90;99.90
52899;DHT22;38763;53.096;6.062;2022-10-26T16:00:47;15.90;99.90
52899;DHT22;38763;53.096;6.062;2022-10-26T16:03:16;15.90;99.90
52899;DHT22;38763;53.096;6.062;2022-10-26T16:05:42;16.00;99.90
52899;DHT22;38763;53.096;6.062;2022-10-26T16:08:11;15.90;99.90
52899;DHT22;38763;53.096;6.062;2022-10-26T16:10:38;15.80;99.90
52899;DHT22;38763;53.096;6.062;2022-10-26T16:13:04;15.70;99.90
52899;DHT22;38763;53.096;6.062;2022-10-26T16:15:30;15.70;99.90
52899;DHT22;38763;53.096;6.062;2022-10-26T16:17:56;15.70;99.90
52899;DHT22;38763;53.096;6.062;2022-10-26T16:20:23;15.80;99.90
52899;DHT22;38763;53.096;6.062;2022-10-26T16:22:52;15.80;99.90
52899;DHT22;38763;53.096;6.062;2022-10-26T16:25:23;15.70;99.90
52899;DHT22;38763;53.096;6.062;2022-10-26T16:27:51;15.80;99.90
52899;DHT22;38763;53.096;6.062;2022-10-26T16:30:18;15.80;99.90
52899;DHT22;38763;53.096;6.062;2022-10-26T16:32:44;15.60;99.90
52899;DHT22;38763;53.096;6.062;2022-10-26T16:35:10;15.80;99.90
52899;DHT22;38763;53.096;6.062;2022-10-26T16:37:36;15.80;99.90
52899;DHT22;38763;53.096;6.062;2022-10-26T16:40:03;15.70;99.90
52899;DHT22;38763;53.096;6.062;2022-10-26T16:42:30;15.60;99.90
52899;DHT22;38763;53.096;6.062;2022-10-26T16:44:56;15.60;99.90
52899;DHT22;38763;53.096;6.062;2022-10-26T16:47:21;15.60;99.90
52899;DHT22;38763;53.096;6.062;2022-10-26T16:49:47;15.40;99.90
52899;DHT22;38763;53.096;6.062;2022-10-26T16:52:12;15.40;99.90
52899;DHT22;38763;53.096;6.062;2022-10-26T16:54:38;15.40;99.90
52899;DHT22;38763;53.096;6.062;2022-10-26T16:57:04;15.30;99.90
52899;DHT22;38763;53.096;6.062;2022-10-26T16:59:30;15.30;99.90
52899;DHT22;38763;53.096;6.062;2022-10-26T17:01:56;15.30;99.90
52899;DHT22;38763;53.096;6.062;2022-10-26T17:04:22;15.30;99.90
52899;DHT22;38763;53.096;6.062;2022-10-26T17:06:48;15.40;99.90
52899;DHT22;38763;53.096;6.062;2022-10-26T17:09:13;15.40;99.90
52899;DHT22;38763;53.096;6.062;2022-10-26T17:11:39;15.30;99.90
52899;DHT22;38763;53.096;6.062;2022-10-26T17:14:05;15.40;99.90
52899;DHT22;38763;53.096;6.062;2022-10-26T17:16:31;15.20;99.90
52899;DHT22;38763;53.096;6.062;2022-10-26T17:18:59;15.30;99.90
52899;DHT22;38763;53.096;6.062;2022-10-26T17:21:32;15.30;99.90
52899;DHT22;38763;53.096;6.062;2022-10-26T17:23:59;15.10;99.90
52899;DHT22;38763;53.096;6.062;2022-10-26T17:26:25;15.20;99.90
52899;DHT22;38763;53.096;6.062;2022-10-26T17:28:52;15.10;99.90
52899;DHT22;38763;53.096;6.062;2022-10-26T17:31:18;15.00;99.90
52899;DHT22;38763;53.096;6.062;2022-10-26T17:33:45;15.10;99.90
52899;DHT22;38763;53.096;6.062;2022-10-26T17:36:16;15.00;99.90
52899;DHT22;38763;53.096;6.062;2022-10-26T17:38:45;15.00;99.90
52899;DHT22;38763;53.096;6.062;2022-10-26T17:41:12;14.90;99.90
52899;DHT22;38763;53.096;6.062;2022-10-26T17:43:39;15.00;99.90
52899;DHT22;38763;53.096;6.062;2022-10-26T17:46:10;14.80;99.90
52899;DHT22;38763;53.096;6.062;2022-10-26T17:48:36;14.90;99.90
52899;DHT22;38763;53.096;6.062;2022-10-26T17:51:04;14.90;99.90
52899;DHT22;38763;53.096;6.062;2022-10-26T17:53:30;14.80;99.90
52899;DHT22;38763;53.096;6.062;2022-10-26T17:56:04;14.80;99.90
52899;DHT22;38763;53.096;6.062;2022-10-26T17:58:31;14.80;99.90
52899;DHT22;38763;53.096;6.062;2022-10-26T18:01:06;14.70;99.90